Fort Mill, South Carolina
Current Conditions -  °F | °C
As of 8:54 AM on Tuesday 27 Jan 2015 (Local Time) from KUZA Reporting Station
Overcast Overcast  
Wind Chill: 33°   Ceiling: 9500
Heat Index: 33°   Visibility: 10mi
Dew Point: 23°   Wind: 3mph
Humidity: 66%   Direction: 30°NNE
Pressure: 29.85"   Gusts: NA
Location:  35.01°N, 80.94°W
Report Text: KUZA 271354Z AUTO 03003KT 10SM OVC095 01/M05 A2985 RMK AO2 SLP115 T00061050
Loading
Personal Weather Stations






























Interactive Weather Map New forecast layout! Learn more

10-Day Weather Forecast

Advertisements
Track Severe Weather on mobile